B. E. Lindholm — WCY9878 — position and weather

sailwx.info

Track history (hours):
 
Tides and Currents Weather Stations Pressure Air Temp Water Temp Dewpoint Dewpoint Depression Visibility Wind Speed Wind Dir Waves Ship Positions

B. E. Lindholm

Owner: WEEKS MARINE, INC., CRANFORD, NJ. More information available from US FCC via Universal Licensing System.

Last reported at 2018-Apr-23 03:30 UTC. Time now 2018-Apr-23 03:46 UTC.
Position N 39°18' W 074°29'.

Length 91 m; draft 5.2 m.

Type: Dredging. MMSI: 368954410.

Date/timePositionNaut miles runAvg speedWind from/ knotsBaromVisibWave heightAir tempDewpointWater temp
2018-Apr-23 03:30N 39°18' W 074°29'4 4.8
2018-Apr-23 02:36N 39°19' W 074°23'0 0.8
2018-Apr-23 02:27N 39°19' W 074°23'0 0.8
2018-Apr-23 01:52N 39°19' W 074°23'3 8.5
2018-Apr-23 01:30N 39°18' W 074°27'3 5.7
2018-Apr-23 01:00N 39°18' W 074°30'0 0.0
2018-Apr-23 00:25N 39°18' W 074°30'0 0.1
2018-Apr-22 23:57N 39°18' W 074°30'0 0.1
2018-Apr-22 23:27N 39°18' W 074°30'5 6.6
2018-Apr-22 22:40N 39°19' W 074°24'0 0.5
2018-Apr-22 22:24N 39°19' W 074°24'0 0.5
2018-Apr-22 22:01N 39°19' W 074°23'0 0.6
2018-Apr-22 21:30N 39°19' W 074°23'6 8.8
2018-Apr-22 20:49N 39°17' W 074°30'0 0.7
2018-Apr-22 20:28N 39°18' W 074°30'2 0.2
2018-Apr-22 12:17N 39°18' W 074°28'1 3.0
2018-Apr-22 12:00N 39°18' W 074°29'4 1.5
2018-Apr-22 09:13N 39°19' W 074°24'0 0.9
2018-Apr-22 08:58N 39°19' W 074°24'0 0.7
2018-Apr-22 08:30N 39°19' W 074°23'1 2.2
2018-Apr-22 07:56N 39°19' W 074°25'410.1
2018-Apr-22 07:30N 39°18' W 074°30'0 0.0
2018-Apr-22 06:25N 39°18' W 074°30'0 0.0
2018-Apr-22 06:00N 39°18' W 074°30'3 5.6
2018-Apr-22 05:30N 39°18' W 074°27'2 4.4
2018-Apr-22 05:00N 39°19' W 074°24'0 0.8
2018-Apr-22 04:30N 39°19' W 074°23'0 0.8
2018-Apr-22 04:00N 39°19' W 074°23'2 4.3
2018-Apr-22 03:30N 39°18' W 074°26'4 7.2
2018-Apr-22 03:00N 39°18' W 074°30'0 0.1
2018-Apr-22 02:30N 39°18' W 074°30'0 0.1
2018-Apr-22 02:00N 39°18' W 074°30'0 0.0
2018-Apr-22 01:30N 39°18' W 074°30'3 5.2
2018-Apr-22 00:59N 39°18' W 074°27'  
2018-Apr-19 08:18N 39°19' W 074°24'0 0.7
2018-Apr-19 08:01N 39°19' W 074°25'2 4.2
2018-Apr-19 07:30N 39°18' W 074°27'2 4.9
2018-Apr-19 07:00N 39°18' W 074°30'0 0.1
2018-Apr-19 06:30N 39°18' W 074°30'0 0.0
2018-Apr-19 05:40N 39°18' W 074°30'0 0.4
2018-Apr-19 05:18N 39°18' W 074°30'2 7.3
2018-Apr-19 04:57N 39°18' W 074°27'3 2.1
2018-Apr-19 03:41N 39°19' W 074°24'0 0.7
2018-Apr-19 03:26N 39°19' W 074°23'0 0.9
2018-Apr-19 03:00N 39°19' W 074°23'3 6.3
2018-Apr-19 02:30N 39°18' W 074°27'3 5.4
2018-Apr-19 02:00N 39°18' W 074°30'0 0.0
2018-Apr-19 01:30N 39°18' W 074°30'20 0.9
2018-Apr-18 03:21N 39°29' W 074°08'410.7
2018-Apr-18 03:00N 39°32' W 074°06'610.9
2018-Apr-18 02:29N 39°38' W 074°03'511.1
2018-Apr-18 02:00N 39°43' W 074°00'611.1
2018-Apr-18 01:28N 39°48' W 073°58'3710.8
2018-Apr-17 22:03N 40°25' W 073°55'010.2
2018-Apr-17 22:00N 40°26' W 073°55'5 9.7
2018-Apr-17 21:29N 40°29' W 074°00'2 3.5
2018-Apr-17 20:59N 40°28' W 074°02'0 0.1
2018-Apr-17 20:30N 40°28' W 074°02'0 0.0
2018-Apr-17 20:00N 40°28' W 074°02'0 0.0
2018-Apr-17 19:30N 40°28' W 074°02'0 0.0
2018-Apr-17 19:00N 40°28' W 074°02'0 0.0
2018-Apr-17 18:30N 40°28' W 074°02'0 0.0
2018-Apr-17 18:00N 40°28' W 074°02'0 0.0
2018-Apr-17 17:30N 40°28' W 074°02'0 0.0
2018-Apr-17 17:00N 40°28' W 074°02'0 0.0
2018-Apr-17 16:27N 40°28' W 074°02'0 0.0
2018-Apr-17 15:57N 40°28' W 074°02'0 0.0
2018-Apr-17 15:30N 40°28' W 074°02'0 0.0
2018-Apr-17 15:00N 40°28' W 074°02'0 0.0
2018-Apr-17 14:30N 40°28' W 074°02'0 0.0
2018-Apr-17 14:00N 40°28' W 074°02'0 0.0
2018-Apr-17 13:30N 40°28' W 074°02'0 0.0
2018-Apr-17 13:00N 40°28' W 074°02'0 0.0
2018-Apr-17 12:30N 40°28' W 074°02'0 0.0
2018-Apr-17 12:00N 40°28' W 074°02'0 0.0
2018-Apr-17 11:30N 40°28' W 074°02'0 0.0
2018-Apr-17 11:00N 40°28' W 074°02'0 0.0
2018-Apr-17 10:30N 40°28' W 074°02'0 0.0
2018-Apr-17 10:00N 40°28' W 074°02'0 0.0
2018-Apr-17 09:30N 40°28' W 074°02'0 0.0
2018-Apr-17 09:00N 40°28' W 074°02'0 0.0
2018-Apr-17 08:30N 40°28' W 074°02'0 0.0
2018-Apr-17 08:00N 40°28' W 074°02'0 0.0
2018-Apr-17 07:30N 40°28' W 074°02'0 0.0
2018-Apr-17 07:00N 40°28' W 074°02'0 0.0
2018-Apr-17 06:30N 40°28' W 074°02'0 0.0
2018-Apr-17 06:00N 40°28' W 074°02'0 0.0
2018-Apr-17 05:30N 40°28' W 074°02'0 0.0
2018-Apr-17 05:00N 40°28' W 074°02'0 0.0
2018-Apr-17 04:30N 40°28' W 074°02'0 0.0
2018-Apr-17 04:00N 40°28' W 074°02'0 0.0
2018-Apr-17 03:30N 40°28' W 074°02'0 0.0
2018-Apr-17 03:00N 40°28' W 074°02'0 0.0
2018-Apr-17 02:30N 40°28' W 074°02'0 0.0
2018-Apr-17 02:00N 40°28' W 074°02'0 0.0
2018-Apr-17 01:30N 40°28' W 074°02'0 0.0
2018-Apr-17 00:57N 40°28' W 074°02'0 0.0
2018-Apr-17 00:27N 40°28' W 074°02'0 0.0
2018-Apr-16 23:45N 40°28' W 074°02'0 0.0
2018-Apr-16 23:15N 40°28' W 074°02'0 0.0
2018-Apr-16 23:00N 40°28' W 074°02'0 0.0
2018-Apr-16 22:27N 40°28' W 074°02'0 0.0
2018-Apr-16 22:00N 40°28' W 074°02'0 0.1
2018-Apr-16 21:30N 40°28' W 074°02'0 0.0
2018-Apr-16 21:00N 40°28' W 074°02'0 0.0
2018-Apr-16 20:30N 40°28' W 074°02'0 0.0
2018-Apr-16 20:00N 40°28' W 074°02'0 0.0
2018-Apr-16 19:30N 40°28' W 074°02'0 0.0
2018-Apr-16 18:15N 40°28' W 074°02'0 0.0
2018-Apr-16 17:45N 40°28' W 074°02'0 0.0
2018-Apr-16 17:27N 40°28' W 074°02'0 0.0
2018-Apr-16 17:00N 40°28' W 074°02'0 0.0
2018-Apr-16 16:24N 40°28' W 074°02'0 0.0
2018-Apr-16 15:57N 40°28' W 074°02'0 0.0
2018-Apr-16 15:06N 40°28' W 074°02'0 0.1
2018-Apr-16 15:00N 40°28' W 074°02'0 0.0
2018-Apr-16 14:24N 40°28' W 074°02'0 0.0
2018-Apr-16 13:48N 40°28' W 074°02'0 0.1
2018-Apr-16 13:30N 40°28' W 074°02'0 0.0
2018-Apr-16 13:00N 40°28' W 074°02'0 0.0
2018-Apr-16 12:30N 40°28' W 074°02'0 0.0
2018-Apr-16 12:00N 40°28' W 074°02'0 0.0
2018-Apr-16 11:30N 40°28' W 074°02'0 0.0
2018-Apr-16 10:57N 40°28' W 074°02'0 0.0
2018-Apr-16 10:30N 40°28' W 074°02'0 0.0
2018-Apr-16 10:00N 40°28' W 074°02'0 0.0
2018-Apr-16 09:30N 40°28' W 074°02'0 0.0
2018-Apr-16 09:00N 40°28' W 074°02'0 0.0
2018-Apr-16 08:30N 40°28' W 074°02'0 0.0
2018-Apr-16 07:54N 40°28' W 074°02'0 0.0
2018-Apr-16 07:30N 40°28' W 074°02'0 0.0
2018-Apr-16 07:00N 40°28' W 074°02'0 0.0
2018-Apr-16 06:30N 40°28' W 074°02'0 0.0
2018-Apr-16 06:00N 40°28' W 074°02'0 0.0
2018-Apr-16 05:27N 40°28' W 074°02'0 0.0
2018-Apr-16 05:00N 40°28' W 074°02'0 0.0
2018-Apr-16 04:30N 40°28' W 074°02'0 0.0
2018-Apr-16 03:57N 40°28' W 074°02'0 0.0
2018-Apr-16 03:27N 40°28' W 074°02'0 0.0
2018-Apr-16 03:00N 40°28' W 074°02'0 0.0
2018-Apr-16 02:24N 40°28' W 074°02'0 0.0
2018-Apr-16 02:00N 40°28' W 074°02'0 0.0
2018-Apr-16 01:30N 40°28' W 074°02'0 0.0
2018-Apr-16 01:00N 40°28' W 074°02'0 0.0
2018-Apr-16 00:30N 40°28' W 074°02'0 0.0
2018-Apr-15 23:54N 40°28' W 074°02'0 0.0
2018-Apr-15 23:18N 40°28' W 074°02'0 0.0
2018-Apr-15 22:42N 40°28' W 074°02'0 0.0
2018-Apr-15 22:12N 40°28' W 074°02'0 0.0
2018-Apr-15 22:00N 40°28' W 074°02'0 0.0
2018-Apr-15 21:30N 40°28' W 074°02'0 0.0
2018-Apr-15 20:57N 40°28' W 074°02'0 0.0
2018-Apr-15 20:27N 40°28' W 074°02'0 0.0
2018-Apr-15 20:00N 40°28' W 074°02'0 0.0
2018-Apr-15 19:30N 40°28' W 074°02'0 0.0
2018-Apr-15 18:57N 40°28' W 074°02'0 0.0
2018-Apr-15 18:27N 40°28' W 074°02'0 0.0
2018-Apr-15 18:00N 40°28' W 074°02'0 0.0
2018-Apr-15 17:27N 40°28' W 074°02'0 0.0
2018-Apr-15 16:57N 40°28' W 074°02'0 0.0
2018-Apr-15 16:30N 40°28' W 074°02'0 0.0
2018-Apr-15 15:57N 40°28' W 074°02'0 0.0
2018-Apr-15 15:27N 40°28' W 074°02'0 0.0
2018-Apr-15 15:00N 40°28' W 074°02'0 0.1
2018-Apr-15 14:30N 40°28' W 074°02'0 0.0
2018-Apr-15 13:57N 40°28' W 074°02'0 0.0
2018-Apr-15 13:30N 40°28' W 074°02'0 0.0
2018-Apr-15 12:57N 40°28' W 074°02'0 0.0
2018-Apr-15 12:30N 40°28' W 074°02'0 0.0
2018-Apr-15 11:54N 40°28' W 074°02'0 0.0
2018-Apr-15 11:30N 40°28' W 074°02'0 0.0
2018-Apr-15 09:57N 40°28' W 074°02'0 0.0
2018-Apr-15 09:09N 40°28' W 074°02'0 0.0
2018-Apr-15 08:57N 40°28' W 074°02'0 0.0
2018-Apr-15 08:30N 40°28' W 074°02'0 0.0
2018-Apr-15 08:00N 40°28' W 074°02'0 0.0
2018-Apr-15 07:30N 40°28' W 074°02'0 0.0
2018-Apr-15 07:00N 40°28' W 074°02'0 0.0
2018-Apr-15 06:30N 40°28' W 074°02'0 0.0
2018-Apr-15 06:00N 40°28' W 074°02'0 0.0
2018-Apr-15 05:30N 40°28' W 074°02'0 0.0
2018-Apr-15 04:57N 40°28' W 074°02'0 0.0
2018-Apr-15 04:30N 40°28' W 074°02'0 0.0
2018-Apr-15 03:54N 40°28' W 074°02'0 0.0
2018-Apr-15 03:30N 40°28' W 074°02'0 0.0
2018-Apr-15 02:57N 40°28' W 074°02'0 0.0
2018-Apr-15 02:30N 40°28' W 074°02'3 6.3
2018-Apr-15 02:00N 40°29' W 074°06'8 8.0
2018-Apr-15 01:02N 40°32' W 074°15'0 8.2
2018-Apr-15 01:00N 40°32' W 074°15'3 5.7
2018-Apr-15 00:30N 40°35' W 074°13'3 5.3
2018-Apr-15 00:00N 40°37' W 074°12'1 2.0
2018-Apr-14 23:30N 40°38' W 074°12'0 0.0
2018-Apr-14 22:55N 40°38' W 074°12'0 0.0
2018-Apr-14 22:29N 40°38' W 074°12'0 0.0
2018-Apr-14 21:56N 40°38' W 074°12'0 0.0
2018-Apr-14 21:28N 40°38' W 074°12'0 0.0
2018-Apr-14 20:58N 40°38' W 074°12'0 0.0
2018-Apr-14 20:23N 40°38' W 074°12'0 0.0
2018-Apr-14 19:59N 40°38' W 074°12'0 0.0
2018-Apr-14 19:28N 40°38' W 074°12'0 0.0
2018-Apr-14 18:59N 40°38' W 074°12'0 0.0
2018-Apr-14 18:28N 40°38' W 074°12'0 0.0
2018-Apr-14 17:58N 40°38' W 074°12'0 0.0
2018-Apr-14 17:28N 40°38' W 074°12'0 0.0
2018-Apr-14 16:58N 40°38' W 074°12'0 0.0
2018-Apr-14 16:28N 40°38' W 074°12'0 0.0
2018-Apr-14 15:58N 40°38' W 074°12'0 0.0
2018-Apr-14 15:28N 40°38' W 074°12'0 0.0
2018-Apr-14 14:55N 40°38' W 074°12'0 0.0
2018-Apr-14 14:28N 40°38' W 074°12'0 0.0
2018-Apr-14 13:55N 40°38' W 074°12'0 0.0
2018-Apr-14 13:28N 40°38' W 074°12'0 0.0
2018-Apr-14 12:58N 40°38' W 074°12'0 0.0
2018-Apr-14 12:19N 40°38' W 074°12'0 0.0
2018-Apr-14 11:58N 40°38' W 074°12'0 0.0
2018-Apr-14 11:28N 40°38' W 074°12'0 0.0
2018-Apr-14 11:00N 40°38' W 074°12'0 0.4
2018-Apr-14 10:29N 40°38' W 074°12'2 3.6
2018-Apr-14 09:59N 40°37' W 074°12'2 4.8
2018-Apr-14 09:29N 40°34' W 074°13'2 4.7
2018-Apr-14 08:58N 40°33' W 074°15'4 3.0
2018-Apr-14 07:46N 40°30' W 074°11'2 6.3
2018-Apr-14 07:30N 40°30' W 074°09'4 7.7
2018-Apr-14 07:00N 40°29' W 074°04'4 7.8
2018-Apr-14 06:30N 40°29' W 073°59'4 7.9
2018-Apr-14 05:58N 40°26' W 073°55'4 7.5
2018-Apr-14 05:29N 40°23' W 073°55'35 8.4
2018-Apr-14 01:17N 39°47' W 073°58'2 8.2
2018-Apr-14 01:00N 39°45' W 073°59'4 8.4
2018-Apr-14 00:29N 39°41' W 074°01'5 8.7
2018-Apr-13 23:56N 39°37' W 074°03'  
Track history (hours):
 
Tides and Currents Weather Stations Pressure Air Temp Water Temp Dewpoint Dewpoint Depression Visibility Wind Speed Wind Dir Waves Ship Positions

B. E. Lindholm

Owner: WEEKS MARINE, INC., CRANFORD, NJ. More information available from US FCC via Universal Licensing System.

Last reported at 2018-Apr-23 03:30 UTC. Time now 2018-Apr-23 03:46 UTC.
Position N 39°18' W 074°29'.

Length 91 m; draft 5.2 m.

Type: Dredging. MMSI: 368954410.

Date/timePositionNaut miles runAvg speedWind from/ knotsBaromVisibWave heightAir tempDewpointWater temp
2018-Apr-23 03:30N 39°18' W 074°29'4 4.8
2018-Apr-23 02:36N 39°19' W 074°23'0 0.8
2018-Apr-23 02:27N 39°19' W 074°23'0 0.8
2018-Apr-23 01:52N 39°19' W 074°23'3 8.5
2018-Apr-23 01:30N 39°18' W 074°27'3 5.7
2018-Apr-23 01:00N 39°18' W 074°30'0 0.0
2018-Apr-23 00:25N 39°18' W 074°30'0 0.1
2018-Apr-22 23:57N 39°18' W 074°30'0 0.1
2018-Apr-22 23:27N 39°18' W 074°30'5 6.6
2018-Apr-22 22:40N 39°19' W 074°24'0 0.5
2018-Apr-22 22:24N 39°19' W 074°24'0 0.5
2018-Apr-22 22:01N 39°19' W 074°23'0 0.6
2018-Apr-22 21:30N 39°19' W 074°23'6 8.8
2018-Apr-22 20:49N 39°17' W 074°30'0 0.7
2018-Apr-22 20:28N 39°18' W 074°30'2 0.2
2018-Apr-22 12:17N 39°18' W 074°28'1 3.0
2018-Apr-22 12:00N 39°18' W 074°29'4 1.5
2018-Apr-22 09:13N 39°19' W 074°24'0 0.9
2018-Apr-22 08:58N 39°19' W 074°24'0 0.7
2018-Apr-22 08:30N 39°19' W 074°23'1 2.2
2018-Apr-22 07:56N 39°19' W 074°25'410.1
2018-Apr-22 07:30N 39°18' W 074°30'0 0.0
2018-Apr-22 06:25N 39°18' W 074°30'0 0.0
2018-Apr-22 06:00N 39°18' W 074°30'3 5.6
2018-Apr-22 05:30N 39°18' W 074°27'2 4.4
2018-Apr-22 05:00N 39°19' W 074°24'0 0.8
2018-Apr-22 04:30N 39°19' W 074°23'0 0.8
2018-Apr-22 04:00N 39°19' W 074°23'2 4.3
2018-Apr-22 03:30N 39°18' W 074°26'4 7.2
2018-Apr-22 03:00N 39°18' W 074°30'0 0.1
2018-Apr-22 02:30N 39°18' W 074°30'0 0.1
2018-Apr-22 02:00N 39°18' W 074°30'0 0.0
2018-Apr-22 01:30N 39°18' W 074°30'3 5.2
2018-Apr-22 00:59N 39°18' W 074°27'  
2018-Apr-19 08:18N 39°19' W 074°24'0 0.7
2018-Apr-19 08:01N 39°19' W 074°25'2 4.2
2018-Apr-19 07:30N 39°18' W 074°27'2 4.9
2018-Apr-19 07:00N 39°18' W 074°30'0 0.1
2018-Apr-19 06:30N 39°18' W 074°30'0 0.0
2018-Apr-19 05:40N 39°18' W 074°30'0 0.4
2018-Apr-19 05:18N 39°18' W 074°30'2 7.3
2018-Apr-19 04:57N 39°18' W 074°27'3 2.1
2018-Apr-19 03:41N 39°19' W 074°24'0 0.7
2018-Apr-19 03:26N 39°19' W 074°23'0 0.9
2018-Apr-19 03:00N 39°19' W 074°23'3 6.3
2018-Apr-19 02:30N 39°18' W 074°27'3 5.4
2018-Apr-19 02:00N 39°18' W 074°30'0 0.0
2018-Apr-19 01:30N 39°18' W 074°30'20 0.9
2018-Apr-18 03:21N 39°29' W 074°08'410.7
2018-Apr-18 03:00N 39°32' W 074°06'610.9
2018-Apr-18 02:29N 39°38' W 074°03'511.1
2018-Apr-18 02:00N 39°43' W 074°00'611.1
2018-Apr-18 01:28N 39°48' W 073°58'3710.8
2018-Apr-17 22:03N 40°25' W 073°55'010.2
2018-Apr-17 22:00N 40°26' W 073°55'5 9.7
2018-Apr-17 21:29N 40°29' W 074°00'2 3.5
2018-Apr-17 20:59N 40°28' W 074°02'0 0.1
2018-Apr-17 20:30N 40°28' W 074°02'0 0.0
2018-Apr-17 20:00N 40°28' W 074°02'0 0.0
2018-Apr-17 19:30N 40°28' W 074°02'0 0.0
2018-Apr-17 19:00N 40°28' W 074°02'0 0.0
2018-Apr-17 18:30N 40°28' W 074°02'0 0.0
2018-Apr-17 18:00N 40°28' W 074°02'0 0.0
2018-Apr-17 17:30N 40°28' W 074°02'0 0.0
2018-Apr-17 17:00N 40°28' W 074°02'0 0.0
2018-Apr-17 16:27N 40°28' W 074°02'0 0.0
2018-Apr-17 15:57N 40°28' W 074°02'0 0.0
2018-Apr-17 15:30N 40°28' W 074°02'0 0.0
2018-Apr-17 15:00N 40°28' W 074°02'0 0.0
2018-Apr-17 14:30N 40°28' W 074°02'0 0.0
2018-Apr-17 14:00N 40°28' W 074°02'0 0.0
2018-Apr-17 13:30N 40°28' W 074°02'0 0.0
2018-Apr-17 13:00N 40°28' W 074°02'0 0.0
2018-Apr-17 12:30N 40°28' W 074°02'0 0.0
2018-Apr-17 12:00N 40°28' W 074°02'0 0.0
2018-Apr-17 11:30N 40°28' W 074°02'0 0.0
2018-Apr-17 11:00N 40°28' W 074°02'0 0.0
2018-Apr-17 10:30N 40°28' W 074°02'0 0.0
2018-Apr-17 10:00N 40°28' W 074°02'0 0.0
2018-Apr-17 09:30N 40°28' W 074°02'0 0.0
2018-Apr-17 09:00N 40°28' W 074°02'0 0.0
2018-Apr-17 08:30N 40°28' W 074°02'0 0.0
2018-Apr-17 08:00N 40°28' W 074°02'0 0.0
2018-Apr-17 07:30N 40°28' W 074°02'0 0.0
2018-Apr-17 07:00N 40°28' W 074°02'0 0.0
2018-Apr-17 06:30N 40°28' W 074°02'0 0.0
2018-Apr-17 06:00N 40°28' W 074°02'0 0.0
2018-Apr-17 05:30N 40°28' W 074°02'0 0.0
2018-Apr-17 05:00N 40°28' W 074°02'0 0.0
2018-Apr-17 04:30N 40°28' W 074°02'0 0.0
2018-Apr-17 04:00N 40°28' W 074°02'0 0.0
2018-Apr-17 03:30N 40°28' W 074°02'0 0.0
2018-Apr-17 03:00N 40°28' W 074°02'0 0.0
2018-Apr-17 02:30N 40°28' W 074°02'0 0.0
2018-Apr-17 02:00N 40°28' W 074°02'0 0.0
2018-Apr-17 01:30N 40°28' W 074°02'0 0.0
2018-Apr-17 00:57N 40°28' W 074°02'0 0.0
2018-Apr-17 00:27N 40°28' W 074°02'0 0.0
2018-Apr-16 23:45N 40°28' W 074°02'0 0.0
2018-Apr-16 23:15N 40°28' W 074°02'0 0.0
2018-Apr-16 23:00N 40°28' W 074°02'0 0.0
2018-Apr-16 22:27N 40°28' W 074°02'0 0.0
2018-Apr-16 22:00N 40°28' W 074°02'0 0.1
2018-Apr-16 21:30N 40°28' W 074°02'0 0.0
2018-Apr-16 21:00N 40°28' W 074°02'0 0.0
2018-Apr-16 20:30N 40°28' W 074°02'0 0.0
2018-Apr-16 20:00N 40°28' W 074°02'0 0.0
2018-Apr-16 19:30N 40°28' W 074°02'0 0.0
2018-Apr-16 18:15N 40°28' W 074°02'0 0.0
2018-Apr-16 17:45N 40°28' W 074°02'0 0.0
2018-Apr-16 17:27N 40°28' W 074°02'0 0.0
2018-Apr-16 17:00N 40°28' W 074°02'0 0.0
2018-Apr-16 16:24N 40°28' W 074°02'0 0.0
2018-Apr-16 15:57N 40°28' W 074°02'0 0.0
2018-Apr-16 15:06N 40°28' W 074°02'0 0.1
2018-Apr-16 15:00N 40°28' W 074°02'0 0.0
2018-Apr-16 14:24N 40°28' W 074°02'0 0.0
2018-Apr-16 13:48N 40°28' W 074°02'0 0.1
2018-Apr-16 13:30N 40°28' W 074°02'0 0.0
2018-Apr-16 13:00N 40°28' W 074°02'0 0.0
2018-Apr-16 12:30N 40°28' W 074°02'0 0.0
2018-Apr-16 12:00N 40°28' W 074°02'0 0.0
2018-Apr-16 11:30N 40°28' W 074°02'0 0.0
2018-Apr-16 10:57N 40°28' W 074°02'0 0.0
2018-Apr-16 10:30N 40°28' W 074°02'0 0.0
2018-Apr-16 10:00N 40°28' W 074°02'0 0.0
2018-Apr-16 09:30N 40°28' W 074°02'0 0.0
2018-Apr-16 09:00N 40°28' W 074°02'0 0.0
2018-Apr-16 08:30N 40°28' W 074°02'0 0.0
2018-Apr-16 07:54N 40°28' W 074°02'0 0.0
2018-Apr-16 07:30N 40°28' W 074°02'0 0.0
2018-Apr-16 07:00N 40°28' W 074°02'0 0.0
2018-Apr-16 06:30N 40°28' W 074°02'0 0.0
2018-Apr-16 06:00N 40°28' W 074°02'0 0.0
2018-Apr-16 05:27N 40°28' W 074°02'0 0.0
2018-Apr-16 05:00N 40°28' W 074°02'0 0.0
2018-Apr-16 04:30N 40°28' W 074°02'0 0.0
2018-Apr-16 03:57N 40°28' W 074°02'0 0.0
2018-Apr-16 03:27N 40°28' W 074°02'0 0.0
2018-Apr-16 03:00N 40°28' W 074°02'0 0.0
2018-Apr-16 02:24N 40°28' W 074°02'0 0.0
2018-Apr-16 02:00N 40°28' W 074°02'0 0.0
2018-Apr-16 01:30N 40°28' W 074°02'0 0.0
2018-Apr-16 01:00N 40°28' W 074°02'0 0.0
2018-Apr-16 00:30N 40°28' W 074°02'0 0.0
2018-Apr-15 23:54N 40°28' W 074°02'0 0.0
2018-Apr-15 23:18N 40°28' W 074°02'0 0.0
2018-Apr-15 22:42N 40°28' W 074°02'0 0.0
2018-Apr-15 22:12N 40°28' W 074°02'0 0.0
2018-Apr-15 22:00N 40°28' W 074°02'0 0.0
2018-Apr-15 21:30N 40°28' W 074°02'0 0.0
2018-Apr-15 20:57N 40°28' W 074°02'0 0.0
2018-Apr-15 20:27N 40°28' W 074°02'0 0.0
2018-Apr-15 20:00N 40°28' W 074°02'0 0.0
2018-Apr-15 19:30N 40°28' W 074°02'0 0.0
2018-Apr-15 18:57N 40°28' W 074°02'0 0.0
2018-Apr-15 18:27N 40°28' W 074°02'0 0.0
2018-Apr-15 18:00N 40°28' W 074°02'0 0.0
2018-Apr-15 17:27N 40°28' W 074°02'0 0.0
2018-Apr-15 16:57N 40°28' W 074°02'0 0.0
2018-Apr-15 16:30N 40°28' W 074°02'0 0.0
2018-Apr-15 15:57N 40°28' W 074°02'0 0.0
2018-Apr-15 15:27N 40°28' W 074°02'0 0.0
2018-Apr-15 15:00N 40°28' W 074°02'0 0.1
2018-Apr-15 14:30N 40°28' W 074°02'0 0.0
2018-Apr-15 13:57N 40°28' W 074°02'0 0.0
2018-Apr-15 13:30N 40°28' W 074°02'0 0.0
2018-Apr-15 12:57N 40°28' W 074°02'0 0.0
2018-Apr-15 12:30N 40°28' W 074°02'0 0.0
2018-Apr-15 11:54N 40°28' W 074°02'0 0.0
2018-Apr-15 11:30N 40°28' W 074°02'0 0.0
2018-Apr-15 09:57N 40°28' W 074°02'0 0.0
2018-Apr-15 09:09N 40°28' W 074°02'0 0.0
2018-Apr-15 08:57N 40°28' W 074°02'0 0.0
2018-Apr-15 08:30N 40°28' W 074°02'0 0.0
2018-Apr-15 08:00N 40°28' W 074°02'0 0.0
2018-Apr-15 07:30N 40°28' W 074°02'0 0.0
2018-Apr-15 07:00N 40°28' W 074°02'0 0.0
2018-Apr-15 06:30N 40°28' W 074°02'0 0.0
2018-Apr-15 06:00N 40°28' W 074°02'0 0.0
2018-Apr-15 05:30N 40°28' W 074°02'0 0.0
2018-Apr-15 04:57N 40°28' W 074°02'0 0.0
2018-Apr-15 04:30N 40°28' W 074°02'0 0.0
2018-Apr-15 03:54N 40°28' W 074°02'0 0.0
2018-Apr-15 03:30N 40°28' W 074°02'0 0.0
2018-Apr-15 02:57N 40°28' W 074°02'0 0.0
2018-Apr-15 02:30N 40°28' W 074°02'3 6.3
2018-Apr-15 02:00N 40°29' W 074°06'8 8.0
2018-Apr-15 01:02N 40°32' W 074°15'0 8.2
2018-Apr-15 01:00N 40°32' W 074°15'3 5.7
2018-Apr-15 00:30N 40°35' W 074°13'3 5.3
2018-Apr-15 00:00N 40°37' W 074°12'1 2.0
2018-Apr-14 23:30N 40°38' W 074°12'0 0.0
2018-Apr-14 22:55N 40°38' W 074°12'0 0.0
2018-Apr-14 22:29N 40°38' W 074°12'0 0.0
2018-Apr-14 21:56N 40°38' W 074°12'0 0.0
2018-Apr-14 21:28N 40°38' W 074°12'0 0.0
2018-Apr-14 20:58N 40°38' W 074°12'0 0.0
2018-Apr-14 20:23N 40°38' W 074°12'0 0.0
2018-Apr-14 19:59N 40°38' W 074°12'0 0.0
2018-Apr-14 19:28N 40°38' W 074°12'0 0.0
2018-Apr-14 18:59N 40°38' W 074°12'0 0.0
2018-Apr-14 18:28N 40°38' W 074°12'0 0.0
2018-Apr-14 17:58N 40°38' W 074°12'0 0.0
2018-Apr-14 17:28N 40°38' W 074°12'0 0.0
2018-Apr-14 16:58N 40°38' W 074°12'0 0.0
2018-Apr-14 16:28N 40°38' W 074°12'0 0.0
2018-Apr-14 15:58N 40°38' W 074°12'0 0.0
2018-Apr-14 15:28N 40°38' W 074°12'0 0.0
2018-Apr-14 14:55N 40°38' W 074°12'0 0.0
2018-Apr-14 14:28N 40°38' W 074°12'0 0.0
2018-Apr-14 13:55N 40°38' W 074°12'0 0.0
2018-Apr-14 13:28N 40°38' W 074°12'0 0.0
2018-Apr-14 12:58N 40°38' W 074°12'0 0.0
2018-Apr-14 12:19N 40°38' W 074°12'0 0.0
2018-Apr-14 11:58N 40°38' W 074°12'0 0.0
2018-Apr-14 11:28N 40°38' W 074°12'0 0.0
2018-Apr-14 11:00N 40°38' W 074°12'0 0.4
2018-Apr-14 10:29N 40°38' W 074°12'2 3.6
2018-Apr-14 09:59N 40°37' W 074°12'2 4.8
2018-Apr-14 09:29N 40°34' W 074°13'2 4.7
2018-Apr-14 08:58N 40°33' W 074°15'4 3.0
2018-Apr-14 07:46N 40°30' W 074°11'2 6.3
2018-Apr-14 07:30N 40°30' W 074°09'4 7.7
2018-Apr-14 07:00N 40°29' W 074°04'4 7.8
2018-Apr-14 06:30N 40°29' W 073°59'4 7.9
2018-Apr-14 05:58N 40°26' W 073°55'4 7.5
2018-Apr-14 05:29N 40°23' W 073°55'35 8.4
2018-Apr-14 01:17N 39°47' W 073°58'2 8.2
2018-Apr-14 01:00N 39°45' W 073°59'4 8.4
2018-Apr-14 00:29N 39°41' W 074°01'5 8.7
2018-Apr-13 23:56N 39°37' W 074°03'  

Dump ship's entire track history